createdAt,value
2019-02-25T00:00:36.524Z,102919.80
2019-02-25T00:03:05.957Z,102932.75
2019-02-25T00:05:35.372Z,102935.31
2019-02-25T00:08:04.729Z,102930.12
2019-02-25T00:10:34.064Z,102927.99
2019-02-25T00:13:03.488Z,102937.46
2019-02-25T00:15:32.834Z,102937.91
2019-02-25T00:18:02.201Z,102934.04
2019-02-25T00:20:31.521Z,102940.50
2019-02-25T00:23:00.890Z,102938.77
2019-02-25T00:25:30.218Z,102942.23
2019-02-25T00:27:59.746Z,102940.05
2019-02-25T00:30:29.082Z,102936.60
2019-02-25T00:32:58.441Z,102940.42
2019-02-25T00:35:27.770Z,102932.59
2019-02-25T00:37:57.131Z,102931.75
2019-02-25T00:40:27.722Z,102922.64
2019-02-25T00:42:57.215Z,102914.03
2019-02-25T00:45:26.548Z,102919.16
2019-02-25T00:47:55.910Z,102915.73
2019-02-25T00:50:25.266Z,102918.78
2019-02-25T00:52:54.585Z,102911.48
2019-02-25T00:55:23.938Z,102904.57
2019-02-25T00:57:53.265Z,102921.81
2019-02-25T01:00:23.163Z,102915.36
2019-02-25T01:02:52.491Z,102917.06
2019-02-25T01:05:21.850Z,102920.54
2019-02-25T01:07:51.185Z,102929.10
2019-02-25T01:10:20.559Z,102932.09
2019-02-25T01:12:49.881Z,102932.13
2019-02-25T01:15:19.236Z,102940.75
2019-02-25T01:17:48.572Z,102945.41
2019-02-25T01:20:18.015Z,102936.72
2019-02-25T01:22:47.371Z,102917.69
2019-02-25T01:25:17.711Z,102915.09
2019-02-25T01:27:47.049Z,102911.63
2019-02-25T01:30:19.866Z,102921.98
2019-02-25T01:32:49.200Z,102917.24
2019-02-25T01:35:28.215Z,102901.31
2019-02-25T01:37:57.416Z,102902.19
2019-02-25T01:40:26.775Z,102908.23
2019-02-25T01:42:56.115Z,102903.97
2019-02-25T01:45:25.469Z,102902.67
2019-02-25T01:47:54.807Z,102904.81
2019-02-25T01:50:24.163Z,102902.19
2019-02-25T01:52:53.491Z,102904.27
2019-02-25T01:55:22.849Z,102899.95
2019-02-25T01:57:52.184Z,102895.66
2019-02-25T02:00:21.539Z,102894.33
2019-02-25T02:02:50.870Z,102891.32
2019-02-25T02:05:20.232Z,102891.27
2019-02-25T02:07:49.572Z,102881.42
2019-02-25T02:10:18.933Z,102883.11
2019-02-25T02:12:48.264Z,102883.11
2019-02-25T02:15:19.630Z,102877.92
2019-02-25T02:17:48.967Z,102874.45
2019-02-25T02:20:18.498Z,102865.80
2019-02-25T02:22:47.838Z,102852.91
2019-02-25T02:25:17.185Z,102855.95
2019-02-25T02:27:46.516Z,102855.53
2019-02-25T02:30:20.675Z,102862.38
2019-02-25T02:32:49.994Z,102854.70
2019-02-25T02:35:19.352Z,102853.03
2019-02-25T02:37:48.688Z,102859.11
2019-02-25T02:40:18.059Z,102850.98
2019-02-25T02:43:00.392Z,102850.13
2019-02-25T02:45:42.227Z,102847.94
2019-02-25T02:48:18.145Z,102849.64
2019-02-25T02:50:47.514Z,102848.27
2019-02-25T02:53:16.850Z,102845.72
2019-02-25T02:55:46.205Z,102842.70
2019-02-25T02:58:15.532Z,102841.38
2019-02-25T03:00:44.901Z,102847.83
2019-02-25T03:03:14.513Z,102853.80
2019-02-25T03:05:43.877Z,102849.80
2019-02-25T03:08:13.215Z,102855.33
2019-02-25T03:10:42.703Z,102856.56
2019-02-25T03:13:12.039Z,102846.61
2019-02-25T03:15:41.395Z,102853.06
2019-02-25T03:18:10.737Z,102848.35
2019-02-25T03:20:40.118Z,102866.41
2019-02-25T03:23:09.462Z,102866.40
2019-02-25T03:25:38.809Z,102866.37
2019-02-25T03:28:08.180Z,102858.58
2019-02-25T03:30:37.516Z,102857.26
2019-02-25T03:33:06.882Z,102860.67
2019-02-25T03:35:36.210Z,102873.98
2019-02-25T03:38:05.576Z,102869.73
2019-02-25T03:40:34.903Z,102869.67
2019-02-25T03:43:04.336Z,102875.27
2019-02-25T03:45:33.648Z,102879.20
2019-02-25T03:48:03.009Z,102879.66
2019-02-25T03:50:32.342Z,102875.75
2019-02-25T03:53:01.701Z,102866.28
2019-02-25T03:55:31.031Z,102872.30
2019-02-25T03:58:00.395Z,102880.13
2019-02-25T04:00:29.731Z,102873.66
2019-02-25T04:02:59.094Z,102869.37
2019-02-25T04:05:28.432Z,102876.65
2019-02-25T04:07:57.776Z,102878.78
2019-02-25T04:10:27.121Z,102882.55
2019-02-25T04:12:56.478Z,102889.87
2019-02-25T04:15:30.490Z,102886.42
2019-02-25T04:17:59.852Z,102885.91
2019-02-25T04:20:29.183Z,102892.70
2019-02-25T04:22:58.540Z,102889.28
2019-02-25T04:25:27.863Z,102888.86
2019-02-25T04:27:57.226Z,102883.33
2019-02-25T04:30:26.560Z,102883.75
2019-02-25T04:32:55.927Z,102871.21
2019-02-25T04:35:25.251Z,102867.31
2019-02-25T04:37:54.627Z,102857.88
2019-02-25T04:40:23.971Z,102851.92
2019-02-25T04:42:53.321Z,102846.31
2019-02-25T04:45:22.677Z,102848.09
2019-02-25T04:47:52.120Z,102844.22
2019-02-25T04:50:21.424Z,102841.58
2019-02-25T04:52:50.787Z,102846.31
2019-02-25T04:55:20.115Z,102841.13
2019-02-25T04:57:49.486Z,102841.09
2019-02-25T05:00:21.677Z,102835.46
2019-02-25T05:02:51.040Z,102840.64
2019-02-25T05:05:20.370Z,102837.23
2019-02-25T05:07:49.833Z,102837.62
2019-02-25T05:10:19.177Z,102837.62
2019-02-25T05:13:04.989Z,102840.23
2019-02-25T05:15:35.606Z,102838.64
2019-02-25T05:18:04.976Z,102838.52
2019-02-25T05:20:34.317Z,102841.00
2019-02-25T05:23:03.684Z,102857.74
2019-02-25T05:25:33.033Z,102861.74
2019-02-25T05:28:02.370Z,102854.88
2019-02-25T05:30:31.703Z,102862.19
2019-02-25T05:33:01.065Z,102868.25
2019-02-25T05:35:30.406Z,102875.21
2019-02-25T05:37:59.756Z,102874.30
2019-02-25T05:40:29.091Z,102873.79
2019-02-25T05:42:58.462Z,102881.94
2019-02-25T05:45:27.785Z,102871.38
2019-02-25T05:47:57.163Z,102871.02
2019-02-25T05:50:26.503Z,102873.63
2019-02-25T05:52:55.867Z,102868.92
2019-02-25T05:55:25.203Z,102862.45
2019-02-25T05:57:54.551Z,102862.38
2019-02-25T06:00:25.780Z,102867.45
2019-02-25T06:02:55.263Z,102871.25
2019-02-25T06:05:24.598Z,102874.30
2019-02-25T06:07:54.099Z,102873.89
2019-02-25T06:10:23.489Z,102874.41
2019-02-25T06:12:52.847Z,102891.25
2019-02-25T06:15:22.177Z,102894.82
2019-02-25T06:17:51.542Z,102897.91
2019-02-25T06:20:20.878Z,102894.98
2019-02-25T06:22:50.264Z,102884.33
2019-02-25T06:25:19.606Z,102885.27
2019-02-25T06:27:48.952Z,102889.16
2019-02-25T06:30:24.446Z,102887.47
2019-02-25T06:32:53.831Z,102893.55
2019-02-25T06:35:23.169Z,102891.41
2019-02-25T06:37:52.558Z,102900.91
2019-02-25T06:40:22.080Z,102902.67
2019-02-25T06:42:51.415Z,102905.30
2019-02-25T06:45:25.922Z,102898.00
2019-02-25T06:47:55.258Z,102892.83
2019-02-25T06:50:24.654Z,102892.84
2019-02-25T06:52:53.978Z,102906.64
2019-02-25T06:55:23.334Z,102916.21
2019-02-25T06:57:52.665Z,102913.66
2019-02-25T07:00:24.682Z,102914.14
2019-02-25T07:02:54.080Z,102908.53
2019-02-25T07:05:41.033Z,102907.28
2019-02-25T07:08:14.722Z,102906.45
2019-02-25T07:10:54.865Z,102917.68
2019-02-25T07:13:25.880Z,102918.98
2019-02-25T07:15:56.850Z,102919.93
2019-02-25T07:18:39.547Z,102923.38
2019-02-25T07:21:10.520Z,102914.83
2019-02-25T07:23:41.516Z,102903.21
2019-02-25T07:26:15.266Z,102900.23
2019-02-25T07:29:03.499Z,102899.78
2019-02-25T07:31:34.575Z,102901.07
2019-02-25T07:34:17.491Z,102896.77
2019-02-25T07:36:57.471Z,102902.39
2019-02-25T07:39:46.071Z,102900.63
2019-02-25T07:42:31.882Z,102894.15
2019-02-25T07:45:17.658Z,102911.37
2019-02-25T07:47:51.666Z,102910.07
2019-02-25T07:50:28.173Z,102916.98
2019-02-25T07:53:11.228Z,102917.40
2019-02-25T07:56:02.304Z,102920.83
2019-02-25T07:58:39.636Z,102919.04
2019-02-25T08:01:16.603Z,102903.02
2019-02-25T08:03:56.537Z,102901.25
2019-02-25T08:06:30.253Z,102895.97
2019-02-25T08:09:07.121Z,102898.05
2019-02-25T08:11:38.120Z,102893.25
2019-02-25T08:14:18.089Z,102879.78
2019-02-25T08:16:53.377Z,102876.22
2019-02-25T08:19:27.281Z,102876.66
2019-02-25T08:22:14.257Z,102876.67
2019-02-25T08:24:50.986Z,102865.66
2019-02-25T08:27:30.962Z,102847.10
2019-02-25T08:30:10.974Z,102831.09
2019-02-25T08:32:42.148Z,102838.80
2019-02-25T08:35:25.254Z,102837.83
2019-02-25T08:37:57.935Z,102830.31
2019-02-25T08:40:52.865Z,102835.75
2019-02-25T08:43:29.758Z,102831.61
2019-02-25T08:46:15.461Z,102823.15
2019-02-25T08:48:55.201Z,102822.91
2019-02-25T08:51:24.591Z,102816.98
2019-02-25T08:53:53.910Z,102826.06
2019-02-25T08:56:23.254Z,102824.47
2019-02-25T08:58:52.603Z,102818.59
2019-02-25T09:01:21.942Z,102825.83
2019-02-25T09:03:51.310Z,102815.22
2019-02-25T09:06:20.651Z,102812.11
2019-02-25T09:08:50.007Z,102808.91
2019-02-25T09:11:19.339Z,102806.88
2019-02-25T09:13:48.706Z,102805.51
2019-02-25T09:16:18.402Z,102802.58
2019-02-25T09:18:47.763Z,102798.55
2019-02-25T09:21:17.108Z,102796.97
2019-02-25T09:23:46.478Z,102798.16
2019-02-25T09:26:15.805Z,102796.45
2019-02-25T09:28:45.196Z,102791.61
2019-02-25T09:31:14.556Z,102789.31
2019-02-25T09:33:44.421Z,102782.47
2019-02-25T09:36:13.790Z,102782.91
2019-02-25T09:38:43.135Z,102783.80
2019-02-25T09:41:12.517Z,102779.78
2019-02-25T09:43:41.861Z,102763.81
2019-02-25T09:46:11.226Z,102767.31
2019-02-25T09:48:40.575Z,102765.53
2019-02-25T09:51:11.339Z,102762.30
2019-02-25T09:53:40.764Z,102766.02
2019-02-25T09:56:10.146Z,102756.45
2019-02-25T09:58:39.503Z,102761.34
2019-02-25T10:01:08.875Z,102764.04
2019-02-25T10:03:38.600Z,102756.86
2019-02-25T10:06:07.980Z,102757.86
2019-02-25T10:08:37.324Z,102752.81
2019-02-25T10:11:06.708Z,102756.98
2019-02-25T10:13:36.050Z,102760.52
2019-02-25T10:16:05.421Z,102765.18
2019-02-25T10:18:36.318Z,102766.22
2019-02-25T10:21:05.706Z,102767.05
2019-02-25T10:23:35.045Z,102760.28
2019-02-25T10:26:05.786Z,102760.22
2019-02-25T10:28:36.778Z,102757.77
2019-02-25T10:31:06.143Z,102758.42
2019-02-25T10:33:35.490Z,102746.23
2019-02-25T10:36:04.874Z,102746.84
2019-02-25T10:38:34.223Z,102735.25
2019-02-25T10:41:03.595Z,102727.16
2019-02-25T10:43:34.559Z,102716.31
2019-02-25T10:46:04.019Z,102710.90
2019-02-25T10:48:33.364Z,102701.13
2019-02-25T10:51:04.755Z,102691.79
2019-02-25T10:53:33.764Z,102693.95
2019-02-25T10:56:06.396Z,102685.05
2019-02-25T10:58:36.071Z,102678.91
2019-02-25T11:01:08.445Z,102684.37
2019-02-25T11:03:36.746Z,102690.36
2019-02-25T11:06:06.119Z,102685.53
2019-02-25T11:08:37.242Z,102672.03
2019-02-25T11:11:14.065Z,102659.88
2019-02-25T11:13:43.868Z,102664.58
2019-02-25T11:16:14.020Z,102666.49
2019-02-25T11:18:55.024Z,102659.22
2019-02-25T11:21:24.634Z,102663.44
2019-02-25T11:23:53.973Z,102653.41
2019-02-25T11:26:24.300Z,102655.91
2019-02-25T11:28:54.608Z,102659.17
2019-02-25T11:31:26.312Z,102660.80
2019-02-25T11:33:56.440Z,102660.18
2019-02-25T11:36:26.515Z,102662.20
2019-02-25T11:38:57.827Z,102664.46
2019-02-25T11:41:27.545Z,102663.04
2019-02-25T11:43:56.894Z,102668.23
2019-02-25T11:46:26.271Z,102655.75
2019-02-25T11:48:55.622Z,102649.70
2019-02-25T11:51:24.999Z,102652.23
2019-02-25T11:53:55.977Z,102641.57
2019-02-25T11:56:25.345Z,102646.56
2019-02-25T11:58:54.925Z,102637.91
2019-02-25T12:01:24.296Z,102635.30
2019-02-25T12:03:53.642Z,102640.70
2019-02-25T12:06:23.024Z,102644.17
2019-02-25T12:08:52.371Z,102632.61
2019-02-25T12:11:21.719Z,102648.15
2019-02-25T12:13:51.097Z,102648.76
2019-02-25T12:16:21.774Z,102643.25
2019-02-25T12:18:58.453Z,102639.21
2019-02-25T12:21:27.819Z,102646.84
2019-02-25T12:23:57.164Z,102642.05
2019-02-25T12:26:26.527Z,102625.53
2019-02-25T12:28:55.926Z,102629.48
2019-02-25T12:31:25.266Z,102626.98
2019-02-25T12:33:54.638Z,102616.89
2019-02-25T12:36:23.998Z,102604.77
2019-02-25T12:38:53.581Z,102597.96
2019-02-25T12:41:22.937Z,102593.42
2019-02-25T12:43:53.287Z,102584.86
2019-02-25T12:46:22.651Z,102576.55
2019-02-25T12:48:53.428Z,102566.58
2019-02-25T12:51:22.776Z,102557.97
2019-02-25T12:53:55.250Z,102559.80
2019-02-25T12:56:24.599Z,102548.41
2019-02-25T12:58:53.978Z,102547.70
2019-02-25T13:01:26.333Z,102531.70
2019-02-25T13:03:55.701Z,102533.04
2019-02-25T13:06:25.044Z,102536.70
2019-02-25T13:08:54.416Z,102535.45
2019-02-25T13:11:24.785Z,102534.61
2019-02-25T13:13:54.149Z,102528.80
2019-02-25T13:16:23.656Z,102521.84
2019-02-25T13:18:57.161Z,102510.60
2019-02-25T13:21:26.498Z,102510.05
2019-02-25T13:23:59.457Z,102498.92
2019-02-25T13:26:29.272Z,102494.95
2019-02-25T13:28:59.645Z,102486.74
2019-02-25T13:31:29.010Z,102492.98
2019-02-25T13:33:58.382Z,102487.72
2019-02-25T13:36:27.715Z,102484.98
2019-02-25T13:38:57.660Z,102483.67
2019-02-25T13:41:27.958Z,102478.27
2019-02-25T13:43:57.336Z,102487.93
2019-02-25T13:46:27.859Z,102490.30
2019-02-25T13:48:57.566Z,102491.28
2019-02-25T13:51:27.292Z,102491.28
2019-02-25T13:53:56.672Z,102499.06
2019-02-25T13:56:28.862Z,102483.67
2019-02-25T13:58:58.823Z,102503.77
2019-02-25T14:01:29.056Z,102506.42
2019-02-25T14:03:58.699Z,102503.16
2019-02-25T14:06:28.504Z,102502.92
2019-02-25T14:08:58.753Z,102498.68
2019-02-25T14:11:28.670Z,102488.84
2019-02-25T14:13:58.037Z,102492.20
2019-02-25T14:16:30.254Z,102503.67
2019-02-25T14:18:59.743Z,102501.55
2019-02-25T14:21:29.102Z,102508.78
2019-02-25T14:23:59.787Z,102506.22
2019-02-25T14:26:29.323Z,102504.57
2019-02-25T14:28:58.682Z,102503.97
2019-02-25T14:31:29.934Z,102497.95
2019-02-25T14:33:59.152Z,102498.08
2019-02-25T14:36:28.513Z,102499.67
2019-02-25T14:38:59.458Z,102496.94
2019-02-25T14:41:29.075Z,102504.15
2019-02-25T14:44:00.630Z,102505.73
2019-02-25T14:46:30.528Z,102516.95
2019-02-25T14:48:59.888Z,102512.84
2019-02-25T14:51:29.218Z,102518.89
2019-02-25T14:53:58.584Z,102523.09
2019-02-25T14:56:27.920Z,102527.86
2019-02-25T14:58:57.286Z,102529.75
2019-02-25T15:01:27.660Z,102529.83
2019-02-25T15:03:58.166Z,102530.34
2019-02-25T15:06:30.282Z,102529.82
2019-02-25T15:09:01.795Z,102527.19
2019-02-25T15:11:30.857Z,102527.97
2019-02-25T15:14:00.234Z,102523.42
2019-02-25T15:16:29.683Z,102521.83
2019-02-25T15:19:00.585Z,102513.22
2019-02-25T15:21:30.298Z,102519.44
2019-02-25T15:24:02.305Z,102523.20
2019-02-25T15:26:31.204Z,102531.28
2019-02-25T15:29:02.915Z,102532.08
2019-02-25T15:31:33.771Z,102530.75
2019-02-25T15:34:03.263Z,102524.02
2019-02-25T15:36:33.523Z,102525.09
2019-02-25T15:39:03.403Z,102542.72
2019-02-25T15:41:33.276Z,102534.31
2019-02-25T15:44:04.714Z,102537.73
2019-02-25T15:46:33.858Z,102538.39
2019-02-25T15:49:04.569Z,102530.24
2019-02-25T15:51:35.106Z,102528.77
2019-02-25T15:54:05.003Z,102528.37
2019-02-25T15:56:34.385Z,102536.08
2019-02-25T15:59:06.975Z,102541.55
2019-02-25T16:01:36.351Z,102539.50
2019-02-25T16:04:09.235Z,102540.15
2019-02-25T16:06:39.838Z,102535.02
2019-02-25T16:09:09.202Z,102534.05
2019-02-25T16:11:41.434Z,102537.69
2019-02-25T16:14:10.970Z,102527.74
2019-02-25T16:16:41.450Z,102523.45
2019-02-25T16:19:10.895Z,102522.47
2019-02-25T16:21:40.997Z,102516.09
2019-02-25T16:24:13.631Z,102525.50
2019-02-25T16:26:42.784Z,102529.03
2019-02-25T16:29:13.451Z,102535.78
2019-02-25T16:31:43.137Z,102535.16
2019-02-25T16:34:14.181Z,102534.58
2019-02-25T16:36:45.192Z,102535.09
2019-02-25T16:39:15.169Z,102529.27
2019-02-25T16:41:45.667Z,102521.55
2019-02-25T16:44:15.669Z,102532.28
2019-02-25T16:46:46.750Z,102529.55
2019-02-25T16:49:16.408Z,102528.47
2019-02-25T16:51:46.267Z,102523.34
2019-02-25T16:54:21.159Z,102517.60
2019-02-25T16:56:52.267Z,102521.05
2019-02-25T16:59:23.041Z,102523.84
2019-02-25T17:01:55.798Z,102516.45
2019-02-25T17:04:25.479Z,102523.17
2019-02-25T17:06:55.702Z,102524.81
2019-02-25T17:09:27.698Z,102532.83
2019-02-25T17:11:58.134Z,102535.63
2019-02-25T17:14:28.293Z,102526.66
2019-02-25T17:16:57.661Z,102525.47
2019-02-25T17:19:28.330Z,102520.39
2019-02-25T17:21:58.278Z,102527.42
2019-02-25T17:24:28.180Z,102530.95
2019-02-25T17:27:00.018Z,102527.45
2019-02-25T17:29:31.882Z,102527.81
2019-02-25T17:32:01.945Z,102525.62
2019-02-25T17:34:34.467Z,102523.45
2019-02-25T17:37:05.939Z,102521.70
2019-02-25T17:39:37.715Z,102518.20
2019-02-25T17:42:08.183Z,102515.17
2019-02-25T17:44:38.709Z,102516.56
2019-02-25T17:47:08.858Z,102507.42
2019-02-25T17:49:42.867Z,102504.81
2019-02-25T17:52:16.300Z,102508.37
2019-02-25T17:54:49.831Z,102504.63
2019-02-25T17:57:19.898Z,102506.89
2019-02-25T17:59:50.542Z,102501.84
2019-02-25T18:02:20.307Z,102499.23
2019-02-25T18:04:53.279Z,102509.84
2019-02-25T18:07:22.992Z,102507.78
2019-02-25T18:09:52.891Z,102510.09
2019-02-25T18:12:29.442Z,102502.70
2019-02-25T18:14:58.987Z,102512.70
2019-02-25T18:17:29.709Z,102516.78
2019-02-25T18:19:59.653Z,102518.59
2019-02-25T18:22:33.053Z,102516.53
2019-02-25T18:25:04.260Z,102507.92
2019-02-25T18:27:35.177Z,102508.92
2019-02-25T18:30:12.912Z,102510.83
2019-02-25T18:32:42.552Z,102506.22
2019-02-25T18:35:12.317Z,102505.77
2019-02-25T18:37:43.524Z,102505.41
2019-02-25T18:40:16.174Z,102491.28
2019-02-25T18:42:47.171Z,102489.30
2019-02-25T18:45:18.453Z,102489.35
2019-02-25T18:47:49.520Z,102480.77
2019-02-25T18:50:26.855Z,102478.27
2019-02-25T18:52:57.369Z,102476.91
2019-02-25T18:55:29.340Z,102480.38
2019-02-25T18:57:59.250Z,102474.80
2019-02-25T19:00:35.398Z,102471.83
2019-02-25T19:03:05.506Z,102472.78
2019-02-25T19:05:34.951Z,102471.09
2019-02-25T19:08:09.698Z,102473.41
2019-02-25T19:10:41.641Z,102474.79
2019-02-25T19:13:10.806Z,102465.77
2019-02-25T19:15:40.170Z,102471.41
2019-02-25T19:18:11.077Z,102466.26
2019-02-25T19:20:41.046Z,102461.92
2019-02-25T19:23:11.727Z,102462.37
2019-02-25T19:25:41.727Z,102453.32
2019-02-25T19:28:13.970Z,102463.87
2019-02-25T19:30:42.302Z,102468.23
2019-02-25T19:33:11.769Z,102472.65
2019-02-25T19:35:41.303Z,102477.17
2019-02-25T19:38:12.774Z,102467.19
2019-02-25T19:40:43.251Z,102464.17
2019-02-25T19:43:12.941Z,102459.91
2019-02-25T19:48:12.895Z,102459.08
2019-02-25T19:50:50.581Z,102453.02
2019-02-25T19:53:15.226Z,102453.47
2019-02-25T19:55:46.284Z,102448.66
2019-02-25T19:58:15.768Z,102442.09
2019-02-25T20:00:45.492Z,102446.44
2019-02-25T20:03:15.379Z,102451.19
2019-02-25T20:05:46.347Z,102451.64
2019-02-25T20:08:16.337Z,102449.05
2019-02-25T20:10:45.941Z,102446.00
2019-02-25T20:13:15.441Z,102456.08
2019-02-25T20:15:46.635Z,102450.05
2019-02-25T20:18:18.395Z,102447.08
2019-02-25T20:20:48.123Z,102439.32
2019-02-25T20:23:20.215Z,102434.98
2019-02-25T20:25:51.144Z,102435.41
2019-02-25T20:28:22.431Z,102439.63
2019-02-25T20:30:53.809Z,102435.70
2019-02-25T20:33:29.328Z,102435.21
2019-02-25T20:35:56.051Z,102439.93
2019-02-25T20:38:27.069Z,102429.87
2019-02-25T20:40:57.875Z,102430.56
2019-02-25T20:43:30.828Z,102422.20
2019-02-25T20:46:02.906Z,102410.81
2019-02-25T20:48:33.168Z,102406.46
2019-02-25T20:51:04.233Z,102405.11
2019-02-25T20:53:37.620Z,102399.37
2019-02-25T20:56:06.508Z,102392.41
2019-02-25T20:58:37.802Z,102383.30
2019-02-25T21:01:09.170Z,102381.89
2019-02-25T21:03:41.550Z,102389.65
2019-02-25T21:06:12.147Z,102384.00
2019-02-25T21:08:42.420Z,102371.77
2019-02-25T21:11:15.780Z,102373.84
2019-02-25T21:13:45.145Z,102372.46
2019-02-25T21:16:16.222Z,102372.83
2019-02-25T21:18:46.642Z,102367.58
2019-02-25T21:21:18.417Z,102362.70
2019-02-25T21:23:47.852Z,102363.98
2019-02-25T21:26:17.210Z,102364.34
2019-02-25T21:28:46.539Z,102362.09
2019-02-25T21:31:17.337Z,102354.61
2019-02-25T21:33:49.798Z,102361.04
2019-02-25T21:36:17.996Z,102361.13
2019-02-25T21:38:49.505Z,102360.12
2019-02-25T21:41:18.806Z,102368.69
2019-02-25T21:43:49.429Z,102368.78
2019-02-25T21:46:21.913Z,102372.69
2019-02-25T21:48:53.019Z,102372.97
2019-02-25T21:51:21.738Z,102369.44
2019-02-25T21:53:53.671Z,102371.52
2019-02-25T21:56:23.262Z,102374.92
2019-02-25T21:58:53.214Z,102379.17
2019-02-25T22:01:22.553Z,102382.19
2019-02-25T22:03:52.549Z,102377.42
2019-02-25T22:06:24.940Z,102380.47
2019-02-25T22:08:55.958Z,102371.34
2019-02-25T22:11:25.054Z,102359.19
2019-02-25T22:13:54.380Z,102361.80
2019-02-25T22:16:25.594Z,102362.66
2019-02-25T22:18:56.455Z,102368.73
2019-02-25T22:21:25.836Z,102364.41
2019-02-25T22:23:57.633Z,102368.73
2019-02-25T22:26:29.041Z,102358.27
2019-02-25T22:28:59.662Z,102361.80
2019-02-25T22:31:28.971Z,102357.44
2019-02-25T22:33:58.327Z,102354.45
2019-02-25T22:36:27.647Z,102361.32
2019-02-25T22:38:58.922Z,102354.73
2019-02-25T22:41:28.056Z,102353.05
2019-02-25T22:43:57.435Z,102352.55
2019-02-25T22:46:29.912Z,102353.41
2019-02-25T22:48:59.328Z,102344.72
2019-02-25T22:51:30.771Z,102342.05
2019-02-25T22:53:59.955Z,102343.42
2019-02-25T22:56:29.293Z,102353.80
2019-02-25T22:59:00.408Z,102342.88
2019-02-25T23:01:29.710Z,102344.98
2019-02-25T23:03:59.084Z,102355.01
2019-02-25T23:06:28.419Z,102349.31
2019-02-25T23:08:57.795Z,102344.48
2019-02-25T23:11:27.140Z,102352.40
2019-02-25T23:13:56.518Z,102348.75
2019-02-25T23:16:25.865Z,102345.70
2019-02-25T23:18:55.238Z,102339.85
2019-02-25T23:21:26.537Z,102343.86
2019-02-25T23:23:58.091Z,102351.66
2019-02-25T23:26:26.927Z,102353.79
2019-02-25T23:28:57.673Z,102339.91
2019-02-25T23:31:29.770Z,102352.45
2019-02-25T23:33:58.429Z,102348.13
2019-02-25T23:36:27.782Z,102344.30
2019-02-25T23:38:59.443Z,102333.39
2019-02-25T23:41:31.924Z,102332.56
2019-02-25T23:43:59.329Z,102327.84
2019-02-25T23:46:29.868Z,102336.09
2019-02-25T23:48:59.744Z,102335.77
2019-02-25T23:51:29.083Z,102338.70
2019-02-25T23:53:58.447Z,102346.97
2019-02-25T23:56:29.515Z,102340.00
2019-02-25T23:58:58.869Z,102330.91
